createdAt,value
2022-08-14T00:01:07.977Z,97201.66
2022-08-14T00:03:37.239Z,97201.66
2022-08-14T00:06:13.991Z,97189.66
2022-08-14T00:08:50.600Z,97191.38
2022-08-14T00:11:17.544Z,97178.50
2022-08-14T00:13:44.084Z,97186.25
2022-08-14T00:16:41.027Z,97179.38
2022-08-14T00:19:19.713Z,97178.50
2022-08-14T00:21:51.745Z,97175.97
2022-08-14T00:24:28.105Z,97182.81
2022-08-14T00:26:56.732Z,97166.47
2022-08-14T00:29:25.458Z,97174.22
2022-08-14T00:31:54.525Z,97179.34
2022-08-14T00:34:36.507Z,97170.81
2022-08-14T00:37:05.676Z,97174.22
2022-08-14T00:39:32.413Z,97175.09
2022-08-14T00:41:59.038Z,97175.97
2022-08-14T00:44:32.699Z,97169.97
2022-08-14T00:47:01.252Z,97175.09
2022-08-14T00:49:30.213Z,97169.06
2022-08-14T00:51:56.990Z,97166.47
2022-08-14T00:54:24.954Z,97169.94
2022-08-14T00:56:55.235Z,97167.38
2022-08-14T00:59:26.314Z,97168.25
2022-08-14T01:01:55.050Z,97169.09
2022-08-14T01:04:51.015Z,97168.25
2022-08-14T01:07:09.178Z,97162.25
2022-08-14T01:09:39.223Z,97165.69
2022-08-14T01:12:06.541Z,97163.94
2022-08-14T01:14:34.775Z,97164.81
2022-08-14T01:17:02.532Z,97157.94
2022-08-14T01:19:47.963Z,97147.69
2022-08-14T01:22:18.987Z,97161.38
2022-08-14T01:24:46.051Z,97162.25
2022-08-14T01:27:18.637Z,97157.97
2022-08-14T01:30:00.608Z,97154.50
2022-08-14T01:32:31.541Z,97139.00
2022-08-14T01:35:17.493Z,97145.94
2022-08-14T01:37:56.780Z,97133.00
2022-08-14T01:40:36.184Z,97145.94
2022-08-14T01:43:15.761Z,97139.97
2022-08-14T01:45:48.737Z,97139.09
2022-08-14T01:48:16.128Z,97100.38
2022-08-14T01:50:47.492Z,97124.53
2022-08-14T01:53:14.408Z,97127.94
2022-08-14T01:55:41.303Z,97120.25
2022-08-14T01:58:19.995Z,97115.09
2022-08-14T02:00:56.371Z,97109.13
2022-08-14T02:03:23.724Z,97103.94
2022-08-14T02:05:50.257Z,97089.31
2022-08-14T02:08:22.483Z,97082.47
2022-08-14T02:11:22.758Z,97100.53
2022-08-14T02:13:50.611Z,97093.69
2022-08-14T02:16:22.397Z,97094.50
2022-08-14T02:18:49.649Z,97085.94
2022-08-14T02:21:19.499Z,97085.06
2022-08-14T02:23:53.646Z,97085.97
2022-08-14T02:26:29.629Z,97083.38
2022-08-14T02:29:03.493Z,97077.38
2022-08-14T02:31:36.369Z,97072.19
2022-08-14T02:34:22.384Z,97073.13
2022-08-14T02:37:03.923Z,97073.94
2022-08-14T02:39:33.236Z,97077.38
2022-08-14T02:41:59.927Z,97061.91
2022-08-14T02:44:31.012Z,97061.97
2022-08-14T02:47:01.552Z,97064.53
2022-08-14T02:49:34.025Z,97063.66
2022-08-14T02:52:01.190Z,97057.69
2022-08-14T02:54:42.520Z,97057.69
2022-08-14T02:57:16.317Z,97046.53
2022-08-14T02:59:56.008Z,97043.09
2022-08-14T03:02:49.235Z,97050.81
2022-08-14T03:05:12.215Z,97037.91
2022-08-14T03:07:40.796Z,97054.22
2022-08-14T03:10:26.821Z,97060.25
2022-08-14T03:12:55.549Z,97059.38
2022-08-14T03:15:22.183Z,97051.63
2022-08-14T03:17:58.252Z,97053.38
2022-08-14T03:20:28.728Z,97044.81
2022-08-14T03:22:58.379Z,97049.09
2022-08-14T03:25:26.763Z,97043.97
2022-08-14T03:27:58.722Z,97051.69
2022-08-14T03:30:39.618Z,97043.97
2022-08-14T03:33:09.055Z,97052.56
2022-08-14T03:35:40.008Z,97045.66
2022-08-14T03:39:12.193Z,97052.56
2022-08-14T03:41:14.531Z,97043.09
2022-08-14T03:43:41.752Z,97042.25
2022-08-14T03:46:10.184Z,97036.25
2022-08-14T03:48:55.228Z,97024.25
2022-08-14T03:51:22.225Z,96995.84
2022-08-14T03:53:49.440Z,97022.50
2022-08-14T03:56:18.018Z,97020.81
2022-08-14T03:58:49.432Z,96987.28
2022-08-14T04:01:19.411Z,97004.50
2022-08-14T04:03:47.476Z,97016.53
2022-08-14T04:06:21.174Z,97006.25
2022-08-14T04:08:49.569Z,96998.56
2022-08-14T04:11:17.068Z,97003.69
2022-08-14T04:13:44.836Z,97002.84
2022-08-14T04:16:22.905Z,97007.09
2022-08-14T04:18:53.990Z,96999.38
2022-08-14T04:21:23.597Z,97004.53
2022-08-14T04:23:57.408Z,96996.81
2022-08-14T04:26:42.585Z,97001.97
2022-08-14T04:29:15.574Z,97001.94
2022-08-14T04:33:01.075Z,96991.69
2022-08-14T04:34:30.002Z,96988.25
2022-08-14T04:37:22.048Z,96989.09
2022-08-14T04:40:10.164Z,96980.53
2022-08-14T04:42:55.887Z,96977.97
2022-08-14T04:45:23.724Z,96974.53
2022-08-14T04:48:10.363Z,96738.81
2022-08-14T04:50:44.981Z,96980.56
2022-08-14T04:53:18.944Z,96985.69
2022-08-14T04:55:51.624Z,96977.97
2022-08-14T04:58:32.763Z,96968.53
2022-08-14T05:01:00.533Z,96968.53
2022-08-14T05:03:28.738Z,96969.41
2022-08-14T05:05:56.809Z,96979.69
2022-08-14T05:08:32.099Z,96984.84
2022-08-14T05:11:11.870Z,96979.69
2022-08-14T05:13:59.487Z,96971.97
2022-08-14T05:16:29.334Z,96980.56
2022-08-14T05:19:18.821Z,96981.41
2022-08-14T05:21:59.715Z,96983.13
2022-08-14T05:24:29.431Z,96979.69
2022-08-14T05:26:56.618Z,96983.94
2022-08-14T05:29:23.347Z,96971.09
2022-08-14T05:31:50.464Z,96968.53
2022-08-14T05:34:23.673Z,96969.41
2022-08-14T05:36:58.923Z,96968.53
2022-08-14T05:39:29.963Z,96971.09
2022-08-14T05:41:57.744Z,96982.25
2022-08-14T05:44:29.631Z,96989.09
2022-08-14T05:46:57.268Z,96989.09
2022-08-14T05:49:26.073Z,96991.69
2022-08-14T05:52:01.964Z,96996.81
2022-08-14T05:54:35.715Z,97005.41
2022-08-14T05:57:04.730Z,97000.25
2022-08-14T05:59:37.048Z,96995.94
2022-08-14T06:02:10.981Z,97009.66
2022-08-14T06:04:38.758Z,97013.97
2022-08-14T06:07:05.699Z,97012.25
2022-08-14T06:09:35.724Z,97005.41
2022-08-14T06:12:10.702Z,97001.06
2022-08-14T06:14:38.864Z,97006.25
2022-08-14T06:17:05.734Z,97007.97
2022-08-14T06:19:32.267Z,97008.84
2022-08-14T06:21:59.376Z,97006.25
2022-08-14T06:24:26.758Z,96993.38
2022-08-14T06:26:56.601Z,97001.97
2022-08-14T06:29:33.377Z,97001.97
2022-08-14T06:32:36.753Z,96998.56
2022-08-14T06:35:02.915Z,97005.41
2022-08-14T06:37:59.157Z,97003.69
2022-08-14T06:40:27.714Z,97001.97
2022-08-14T06:43:00.132Z,97001.97
2022-08-14T06:45:30.229Z,97000.25
2022-08-14T06:47:58.579Z,97008.84
2022-08-14T06:50:28.608Z,97008.84
2022-08-14T06:52:59.760Z,97008.84
2022-08-14T06:55:28.083Z,97009.66
2022-08-14T06:57:55.976Z,97008.84
2022-08-14T07:00:30.922Z,97012.22
2022-08-14T07:03:17.083Z,97014.81
2022-08-14T07:05:55.369Z,97007.94
2022-08-14T07:08:29.669Z,97004.50
2022-08-14T07:11:00.134Z,97006.25
2022-08-14T07:13:28.317Z,96979.59
2022-08-14T07:15:56.110Z,96998.56
2022-08-14T07:18:26.559Z,96998.56
2022-08-14T07:20:53.447Z,96998.53
2022-08-14T07:23:23.813Z,97004.53
2022-08-14T07:25:52.295Z,96996.81
2022-08-14T07:28:23.888Z,96989.97
2022-08-14T07:30:52.471Z,96974.50
2022-08-14T07:33:20.899Z,96968.53
2022-08-14T07:35:58.421Z,96969.41
2022-08-14T07:38:30.768Z,96971.09
2022-08-14T07:41:02.159Z,96968.53
2022-08-14T07:43:29.726Z,96965.13
2022-08-14T07:45:56.299Z,96941.06
2022-08-14T07:48:24.838Z,96945.38
2022-08-14T07:50:52.014Z,96934.28
2022-08-14T07:53:18.735Z,96925.69
2022-08-14T07:55:46.593Z,96917.09
2022-08-14T07:58:30.450Z,96926.56
2022-08-14T08:01:01.429Z,96921.41
2022-08-14T08:03:28.204Z,96920.50
2022-08-14T08:05:56.967Z,96922.25
2022-08-14T08:08:26.981Z,96933.41
2022-08-14T08:11:03.087Z,96930.84
2022-08-14T08:13:30.256Z,96919.69
2022-08-14T08:15:57.576Z,96910.28
2022-08-14T08:18:29.363Z,96914.56
2022-08-14T08:20:59.727Z,96919.69
2022-08-14T08:23:40.803Z,96923.13
2022-08-14T08:26:10.285Z,96920.56
2022-08-14T08:28:36.819Z,96917.13
2022-08-14T08:31:05.710Z,96923.13
2022-08-14T08:33:37.497Z,96923.13
2022-08-14T08:36:06.335Z,96922.25
2022-08-14T08:39:16.597Z,96916.28
2022-08-14T08:41:21.089Z,96913.72
2022-08-14T08:43:48.102Z,96904.22
2022-08-14T08:46:24.039Z,96905.97
2022-08-14T08:48:54.040Z,96908.53
2022-08-14T08:51:34.565Z,96909.41
2022-08-14T08:54:04.072Z,96908.56
2022-08-14T08:56:46.971Z,96898.28
2022-08-14T08:59:30.731Z,96897.44
2022-08-14T09:02:04.070Z,96905.13
2022-08-14T09:04:35.633Z,96900.88
2022-08-14T09:07:11.748Z,96902.56
2022-08-14T09:09:54.466Z,96902.56
2022-08-14T09:12:25.492Z,96888.00
2022-08-14T09:14:53.954Z,96881.09
2022-08-14T09:17:20.668Z,96900.84
2022-08-14T09:19:53.292Z,96899.13
2022-08-14T09:22:35.052Z,96893.13
2022-08-14T09:25:03.102Z,96893.97
2022-08-14T09:27:29.660Z,96874.28
2022-08-14T09:29:56.200Z,96891.41
2022-08-14T09:32:59.110Z,96859.72
2022-08-14T09:35:40.364Z,96860.56
2022-08-14T09:38:15.482Z,96859.69
2022-08-14T09:41:13.866Z,96867.44
2022-08-14T09:43:59.452Z,96876.00
2022-08-14T09:46:27.827Z,96881.13
2022-08-14T09:49:01.582Z,96856.25
2022-08-14T09:51:32.862Z,96873.41
2022-08-14T09:54:18.533Z,96862.25
2022-08-14T09:56:56.694Z,96865.69
2022-08-14T09:59:25.525Z,96856.28
2022-08-14T10:01:57.126Z,96855.38
2022-08-14T10:04:33.530Z,96854.56
2022-08-14T10:07:02.786Z,96848.56
2022-08-14T10:09:33.598Z,96849.41
2022-08-14T10:12:04.522Z,96850.28
2022-08-14T10:14:35.671Z,96847.69
2022-08-14T10:17:05.213Z,96852.00
2022-08-14T10:19:35.654Z,96852.84
2022-08-14T10:23:11.877Z,96847.72
2022-08-14T10:24:57.092Z,96844.31
2022-08-14T10:27:24.650Z,96843.44
2022-08-14T10:29:55.623Z,96842.56
2022-08-14T10:32:29.147Z,96832.28
2022-08-14T10:35:10.947Z,96829.72
2022-08-14T10:37:50.866Z,96822.88
2022-08-14T10:40:43.394Z,96825.44
2022-08-14T10:43:27.092Z,96823.75
2022-08-14T10:46:03.415Z,96824.56
2022-08-14T10:49:02.761Z,96828.88
2022-08-14T10:51:34.128Z,96813.44
2022-08-14T10:54:17.177Z,96817.72
2022-08-14T10:56:58.459Z,96818.59
2022-08-14T10:59:31.059Z,96799.72
2022-08-14T11:02:02.007Z,96796.25
2022-08-14T11:04:30.200Z,96817.72
2022-08-14T11:06:57.039Z,96816.03
2022-08-14T11:09:26.377Z,96811.72
2022-08-14T11:12:33.283Z,96815.16
2022-08-14T11:15:03.634Z,96797.97
2022-08-14T11:17:32.537Z,96792.88
2022-08-14T11:20:00.841Z,96798.03
2022-08-14T11:22:55.940Z,96789.44
2022-08-14T11:25:15.268Z,96786.88
2022-08-14T11:27:43.440Z,96786.00
2022-08-14T11:30:50.980Z,96789.44
2022-08-14T11:33:05.377Z,96777.47
2022-08-14T11:35:44.361Z,96767.19
2022-08-14T11:38:14.322Z,96769.75
2022-08-14T11:40:43.772Z,96768.88
2022-08-14T11:43:13.891Z,96770.56
2022-08-14T11:45:41.376Z,96767.19
2022-08-14T11:49:03.953Z,96744.03
2022-08-14T11:51:16.402Z,96750.88
2022-08-14T11:53:44.743Z,96756.91
2022-08-14T11:56:12.328Z,96749.19
2022-08-14T11:58:39.400Z,96731.19
2022-08-14T12:01:07.490Z,96736.34
2022-08-14T12:03:51.522Z,96726.88
2022-08-14T12:06:28.683Z,96730.31
2022-08-14T12:09:08.911Z,96721.75
2022-08-14T12:11:44.251Z,96717.47
2022-08-14T12:14:34.542Z,96716.59
2022-08-14T12:17:11.928Z,96709.75
2022-08-14T12:19:50.640Z,96704.63
2022-08-14T12:22:30.150Z,96709.75
2022-08-14T12:24:56.892Z,96712.34
2022-08-14T12:27:25.281Z,96714.03
2022-08-14T12:29:53.444Z,96701.16
2022-08-14T12:32:19.992Z,96696.03
2022-08-14T12:34:52.499Z,96697.78
2022-08-14T12:37:21.716Z,96695.19
2022-08-14T12:39:49.117Z,96670.31
2022-08-14T12:42:27.358Z,96684.06
2022-08-14T12:45:04.086Z,96678.03
2022-08-14T12:47:31.387Z,96690.06
2022-08-14T12:49:58.971Z,96676.34
2022-08-14T12:52:45.173Z,96680.63
2022-08-14T12:55:21.776Z,96672.91
2022-08-14T12:57:49.385Z,96671.19
2022-08-14T13:00:24.631Z,96651.50
2022-08-14T13:02:55.851Z,96660.06
2022-08-14T13:05:27.529Z,96660.91
2022-08-14T13:07:54.287Z,96648.94
2022-08-14T13:10:51.198Z,96642.06
2022-08-14T13:13:15.716Z,96630.94
2022-08-14T13:15:47.384Z,96628.38
2022-08-14T13:18:15.754Z,96585.47
2022-08-14T13:20:51.500Z,96622.34
2022-08-14T13:23:30.684Z,96625.78
2022-08-14T13:25:59.137Z,96623.22
2022-08-14T13:28:32.575Z,96615.50
2022-08-14T13:31:03.693Z,96613.78
2022-08-14T13:33:37.697Z,96589.81
2022-08-14T13:36:08.118Z,96595.78
2022-08-14T13:38:34.675Z,96584.66
2022-08-14T13:41:01.227Z,96592.38
2022-08-14T13:43:36.468Z,96570.94
2022-08-14T13:46:03.941Z,96594.97
2022-08-14T13:48:33.282Z,96583.81
2022-08-14T13:51:04.702Z,96574.38
2022-08-14T13:53:33.787Z,96578.66
2022-08-14T13:56:00.436Z,96571.81
2022-08-14T13:58:34.114Z,96569.25
2022-08-14T14:01:02.067Z,96559.78
2022-08-14T14:03:32.050Z,96546.09
2022-08-14T14:05:58.722Z,96566.69
2022-08-14T14:08:46.183Z,96564.09
2022-08-14T14:11:15.693Z,96568.38
2022-08-14T14:13:45.304Z,96551.25
2022-08-14T14:16:15.249Z,96556.41
2022-08-14T14:18:55.754Z,96549.50
2022-08-14T14:21:28.571Z,96558.97
2022-08-14T14:23:55.208Z,96552.09
2022-08-14T14:26:24.158Z,96544.38
2022-08-14T14:28:57.104Z,96542.69
2022-08-14T14:31:30.323Z,96539.22
2022-08-14T14:34:07.759Z,96531.53
2022-08-14T14:36:50.092Z,96535.84
2022-08-14T14:39:20.219Z,96533.25
2022-08-14T14:41:47.180Z,96521.25
2022-08-14T14:44:25.433Z,96527.25
2022-08-14T14:46:53.461Z,96536.66
2022-08-14T14:49:21.674Z,96543.53
2022-08-14T14:51:51.459Z,96528.94
2022-08-14T14:54:30.286Z,96543.53
2022-08-14T14:57:00.177Z,96534.09
2022-08-14T14:59:30.103Z,96523.81
2022-08-14T15:02:02.619Z,96534.09
2022-08-14T15:04:37.115Z,96522.97
2022-08-14T15:07:05.099Z,96511.81
2022-08-14T15:09:33.496Z,96524.69
2022-08-14T15:12:00.062Z,96522.09
2022-08-14T15:14:54.729Z,96519.53
2022-08-14T15:17:13.138Z,96516.09
2022-08-14T15:19:39.828Z,96514.41
2022-08-14T15:22:07.671Z,96509.25
2022-08-14T15:24:38.044Z,96508.38
2022-08-14T15:27:06.800Z,96511.81
2022-08-14T15:29:43.077Z,96500.69
2022-08-14T15:32:10.116Z,96502.41
2022-08-14T15:34:44.531Z,96498.97
2022-08-14T15:37:16.665Z,96490.41
2022-08-14T15:39:44.286Z,96481.00
2022-08-14T15:42:15.947Z,96494.69
2022-08-14T15:44:58.033Z,96493.84
2022-08-14T15:47:29.258Z,96500.69
2022-08-14T15:50:00.523Z,96501.53
2022-08-14T15:52:33.052Z,96500.69
2022-08-14T15:55:08.475Z,96494.69
2022-08-14T15:57:36.162Z,96522.09
2022-08-14T16:00:40.793Z,96492.13
2022-08-14T16:03:12.690Z,96489.56
2022-08-14T16:05:42.250Z,96492.97
2022-08-14T16:08:28.643Z,96487.00
2022-08-14T16:10:55.843Z,96474.97
2022-08-14T16:13:39.834Z,96483.56
2022-08-14T16:16:50.792Z,96483.56
2022-08-14T16:19:00.927Z,96474.97
2022-08-14T16:24:27.073Z,96470.69
2022-08-14T16:27:00.757Z,96463.00
2022-08-14T16:29:31.263Z,96463.00
2022-08-14T16:32:01.819Z,96461.28
2022-08-14T16:34:50.102Z,96466.44
2022-08-14T16:37:21.245Z,96456.16
2022-08-14T16:39:49.489Z,96448.44
2022-08-14T16:40:24.131Z,96472.41
2022-08-14T16:43:02.866Z,96456.16
2022-08-14T16:45:09.763Z,96451.84
2022-08-14T16:47:36.566Z,96456.97
2022-08-14T16:50:08.873Z,96453.56
2022-08-14T16:52:44.961Z,96453.56
2022-08-14T16:55:22.409Z,96448.44
2022-08-14T16:57:58.745Z,96452.72
2022-08-14T17:00:45.848Z,96451.84
2022-08-14T17:03:12.702Z,96442.44
2022-08-14T17:05:43.008Z,96448.44
2022-08-14T17:08:32.779Z,96448.44
2022-08-14T17:11:11.899Z,96448.44
2022-08-14T17:13:59.214Z,96450.13
2022-08-14T17:16:29.956Z,96459.56
2022-08-14T17:19:00.744Z,96462.13
2022-08-14T17:21:35.347Z,96459.56
2022-08-14T17:24:55.948Z,96457.84
2022-08-14T17:26:55.201Z,96463.84
2022-08-14T17:29:22.221Z,96465.56
2022-08-14T17:31:58.120Z,96465.56
2022-08-14T17:34:44.305Z,96457.84
2022-08-14T17:37:34.073Z,96459.56
2022-08-14T17:40:14.942Z,96453.56
2022-08-14T17:42:45.465Z,96457.84
2022-08-14T17:45:27.002Z,96459.56
2022-08-14T17:47:56.948Z,96460.41
2022-08-14T17:51:00.095Z,96459.56
2022-08-14T17:53:30.290Z,96463.00
2022-08-14T17:56:01.893Z,96463.84
2022-08-14T17:58:30.286Z,96468.13
2022-08-14T18:01:05.509Z,96446.72
2022-08-14T18:03:50.119Z,96449.28
2022-08-14T18:06:40.260Z,96451.84
2022-08-14T18:09:26.288Z,96469.00
2022-08-14T18:11:57.915Z,96452.72
2022-08-14T18:14:32.809Z,96463.84
2022-08-14T18:17:00.839Z,96463.84
2022-08-14T18:19:28.671Z,96466.44
2022-08-14T18:21:59.216Z,96454.41
2022-08-14T18:24:30.069Z,96470.69
2022-08-14T18:27:15.062Z,96469.84
2022-08-14T18:29:59.931Z,96453.59
2022-08-14T18:32:32.603Z,96465.56
2022-08-14T18:35:11.267Z,96467.25
2022-08-14T18:37:39.841Z,96473.28
2022-08-14T18:40:16.080Z,96469.00
2022-08-14T18:42:57.152Z,96470.69
2022-08-14T18:45:42.918Z,96464.69
2022-08-14T18:48:28.701Z,96468.13
2022-08-14T18:51:12.441Z,96467.25
2022-08-14T18:53:57.016Z,96474.13
2022-08-14T18:56:58.404Z,96480.13
2022-08-14T18:59:46.585Z,96478.41
2022-08-14T19:02:30.482Z,96484.41
2022-08-14T19:04:58.764Z,96485.25
2022-08-14T19:07:25.507Z,96494.69
2022-08-14T19:09:58.231Z,96488.69
2022-08-14T19:12:52.508Z,96494.69
2022-08-14T19:15:31.351Z,96488.69
2022-08-14T19:18:14.692Z,96498.97
2022-08-14T19:20:47.675Z,96493.84
2022-08-14T19:23:16.972Z,96493.84
2022-08-14T19:25:57.841Z,96492.97
2022-08-14T19:28:31.776Z,96492.97
2022-08-14T19:31:37.092Z,96499.84
2022-08-14T19:34:09.183Z,96498.97
2022-08-14T19:37:05.236Z,96503.25
2022-08-14T19:40:15.595Z,96503.25
2022-08-14T19:42:47.336Z,96505.81
2022-08-14T19:45:15.545Z,96506.69
2022-08-14T19:47:42.299Z,96509.25
2022-08-14T19:50:37.909Z,96510.13
2022-08-14T19:53:11.251Z,96515.25
2022-08-14T19:55:39.352Z,96509.25
2022-08-14T19:58:12.482Z,96505.00
2022-08-14T20:00:52.287Z,96509.25
2022-08-14T20:03:23.410Z,96514.41
2022-08-14T20:06:00.546Z,96516.09
2022-08-14T20:09:06.457Z,96514.41
2022-08-14T20:12:03.016Z,96517.84
2022-08-14T20:14:36.081Z,96508.38
2022-08-14T20:17:06.580Z,96507.56
2022-08-14T20:19:37.733Z,96505.81
2022-08-14T20:22:35.101Z,96510.97
2022-08-14T20:24:55.225Z,96505.81
2022-08-14T20:27:33.274Z,96505.81
2022-08-14T20:30:33.402Z,96510.97
2022-08-14T20:33:07.549Z,96476.72
2022-08-14T20:35:44.122Z,96515.25
2022-08-14T20:38:29.698Z,96506.69
2022-08-14T20:41:00.356Z,96503.25
2022-08-14T20:43:52.868Z,96521.25
2022-08-14T20:46:30.045Z,96515.25
2022-08-14T20:49:04.769Z,96519.53
2022-08-14T20:51:43.508Z,96512.69
2022-08-14T20:54:34.427Z,96518.66
2022-08-14T20:57:11.928Z,96516.09
2022-08-14T20:59:45.486Z,96518.66
2022-08-14T21:02:28.874Z,96518.66
2022-08-14T21:05:16.712Z,96520.41
2022-08-14T21:07:44.644Z,96516.09
2022-08-14T21:10:36.100Z,96522.97
2022-08-14T21:13:27.733Z,96523.81
2022-08-14T21:15:58.053Z,96527.25
2022-08-14T21:18:35.197Z,96531.53
2022-08-14T21:21:19.281Z,96524.69
2022-08-14T21:23:54.699Z,96534.97
2022-08-14T21:26:50.860Z,96506.69
2022-08-14T21:29:14.244Z,96539.22
2022-08-14T21:31:41.708Z,96529.81
2022-08-14T21:34:31.659Z,96522.09
2022-08-14T21:36:55.483Z,96532.38
2022-08-14T21:39:24.056Z,96528.94
2022-08-14T21:41:59.200Z,96528.13
2022-08-14T21:44:36.214Z,96541.81
2022-08-14T21:47:11.167Z,96505.81
2022-08-14T21:49:38.897Z,96525.53
2022-08-14T21:52:50.833Z,96514.41
2022-08-14T21:55:00.521Z,96533.25
2022-08-14T21:57:56.372Z,96516.09
2022-08-14T22:00:34.560Z,96505.00
2022-08-14T22:03:05.483Z,96530.69
2022-08-14T22:05:32.332Z,96523.81
2022-08-14T22:07:58.984Z,96511.81
2022-08-14T22:10:29.049Z,96522.09
2022-08-14T22:13:00.961Z,96528.94
2022-08-14T22:15:28.448Z,96522.97
2022-08-14T22:17:55.310Z,96523.81
2022-08-14T22:20:22.859Z,96518.66
2022-08-14T22:22:56.114Z,96521.25
2022-08-14T22:25:23.440Z,96505.00
2022-08-14T22:28:01.336Z,96518.66
2022-08-14T22:30:27.921Z,96516.97
2022-08-14T22:32:57.555Z,96519.53
2022-08-14T22:35:25.351Z,96521.25
2022-08-14T22:38:36.623Z,96519.53
2022-08-14T22:41:09.380Z,96526.38
2022-08-14T22:43:30.197Z,96513.53
2022-08-14T22:45:58.392Z,96526.38
2022-08-14T22:48:29.352Z,96529.81
2022-08-14T22:50:56.150Z,96525.53
2022-08-14T22:53:23.873Z,96494.69
2022-08-14T22:55:56.644Z,96526.38
2022-08-14T22:58:31.837Z,96529.81
2022-08-14T23:01:01.625Z,96535.81
2022-08-14T23:03:28.765Z,96531.53
2022-08-14T23:05:55.523Z,96522.97
2022-08-14T23:08:56.207Z,96524.69
2022-08-14T23:11:10.127Z,96534.09
2022-08-14T23:13:38.857Z,96531.53
2022-08-14T23:16:06.518Z,96528.94
2022-08-14T23:18:33.043Z,96528.13
2022-08-14T23:20:59.604Z,96534.97
2022-08-14T23:23:26.566Z,96533.25
2022-08-14T23:26:00.508Z,96527.25
2022-08-14T23:28:56.538Z,96528.94
2022-08-14T23:31:34.255Z,96531.53
2022-08-14T23:34:07.019Z,96531.53
2022-08-14T23:36:37.857Z,96529.81
2022-08-14T23:39:20.836Z,96530.69
2022-08-14T23:41:53.000Z,96525.53
2022-08-14T23:44:21.850Z,96516.97
2022-08-14T23:46:49.471Z,96516.09
2022-08-14T23:49:24.957Z,96510.97
2022-08-14T23:52:51.425Z,96510.97
2022-08-14T23:54:49.022Z,96506.69
2022-08-14T23:57:19.333Z,96496.41
2022-08-14T23:59:54.810Z,96499.84
